Time;durP1;ratioP1;P1;durP2;ratioP2;P2;SDS_P1;SDS_P2;PMS_P1;PMS_P2;Temp;Humidity;BMP_temperature;BMP_pressure;BME280_temperature;BME280_humidity;BME280_pressure;Samples;Min_cycle;Max_cycle;Signal;HPM_P1;HPM_P2
2021/09/26 00:02:23;;;;;;;15.70;14.20;;;;;;;14.78;82.54;99822.39;462733;1190;142063;-70
2021/09/26 00:12:29;;;;;;;15.70;13.80;;;;;;;14.77;82.81;99821.92;461922;1180;142544;-69
2021/09/26 00:22:35;;;;;;;15.80;14.30;;;;;;;14.73;82.91;99821.16;463844;1177;141799;-69
2021/09/26 00:32:43;;;;;;;23.30;20.10;;;;;;;14.65;83.08;99830.88;461638;1190;141065;-68
2021/09/26 00:42:49;;;;;;;20.10;16.80;;;;;;;14.64;83.24;99833.63;462434;1190;140839;-68
2021/09/26 00:52:55;;;;;;;19.00;16.70;;;;;;;14.60;83.32;99835.17;461432;1190;142434;-66
2021/09/26 01:03:01;;;;;;;19.00;16.30;;;;;;;14.55;83.52;99834.98;476761;1190;141708;-68
2021/09/26 01:13:23;;;;;;;20.30;16.80;;;;;;;14.54;83.50;99840.66;477777;1190;141501;-68
2021/09/26 01:24:07;;;;;;;18.80;16.80;;;;;;;14.50;83.45;99850.90;469886;1190;142342;-68
2021/09/26 01:34:19;;;;;;;17.00;15.30;;;;;;;14.49;83.82;99847.79;474450;1192;141648;-67
2021/09/26 01:44:31;;;;;;;17.20;15.50;;;;;;;14.42;83.68;99851.27;476977;1190;141679;-68
2021/09/26 01:54:38;;;;;;;19.90;16.80;;;;;;;14.43;83.94;99855.10;473511;1192;141394;-69
2021/09/26 02:04:45;;;;;;;17.10;15.40;;;;;;;14.44;83.92;99863.27;461033;1190;142665;-67
2021/09/26 02:14:51;;;;;;;18.90;16.30;;;;;;;14.39;84.10;99864.59;460108;1192;144050;-67
2021/09/26 02:24:59;;;;;;;21.10;18.50;;;;;;;14.36;84.26;99873.23;469088;1190;143246;-69
2021/09/26 02:35:07;;;;;;;18.60;16.40;;;;;;;14.32;84.33;99870.70;477144;1190;142445;-68
2021/09/26 02:45:17;;;;;;;16.90;15.20;;;;;;;14.33;84.26;99875.25;477594;1192;213978;-68
2021/09/26 02:55:25;;;;;;;16.00;14.30;;;;;;;14.31;84.26;99879.77;471613;1190;142355;-66
2021/09/26 03:05:31;;;;;;;18.60;16.70;;;;;;;14.22;84.22;99887.65;470827;1188;142408;-67
2021/09/26 03:15:37;;;;;;;17.00;15.40;;;;;;;14.13;84.35;99885.84;476868;1184;143117;-67
2021/09/26 03:25:43;;;;;;;17.40;15.60;;;;;;;14.05;84.41;99889.13;473574;1191;142211;-66
2021/09/26 03:35:49;;;;;;;18.20;16.30;;;;;;;14.01;84.49;99890.26;466514;1191;141798;-66
2021/09/26 03:45:55;;;;;;;16.40;14.90;;;;;;;14.00;84.59;99894.21;477809;1190;140986;-67
2021/09/26 03:56:01;;;;;;;15.90;14.30;;;;;;;13.93;84.53;99894.85;477838;1190;141738;-67
2021/09/26 04:06:10;;;;;;;16.80;15.10;;;;;;;13.93;84.60;99897.50;474320;1190;141573;-69
2021/09/26 04:16:16;;;;;;;21.50;19.60;;;;;;;13.92;84.47;99891.41;464477;1190;142019;-68
2021/09/26 04:26:23;;;;;;;18.70;17.00;;;;;;;13.90;84.78;99890.91;474511;1191;141618;-66
2021/09/26 04:36:29;;;;;;;17.70;16.00;;;;;;;13.84;84.73;99895.14;475602;1190;142209;-66
2021/09/26 04:46:35;;;;;;;19.60;17.60;;;;;;;13.77;84.69;99903.98;472587;1190;143021;-67
2021/09/26 04:56:41;;;;;;;24.10;21.70;;;;;;;13.75;84.92;99905.18;473299;1190;143244;-68
2021/09/26 05:06:48;;;;;;;18.20;16.40;;;;;;;13.77;84.94;99915.95;477869;1189;141688;-69
2021/09/26 05:16:54;;;;;;;17.70;16.00;;;;;;;13.83;84.58;99926.91;477835;1190;142497;-67
2021/09/26 05:27:03;;;;;;;18.00;16.10;;;;;;;14.04;84.28;99927.15;476183;1190;142657;-67
2021/09/26 05:37:10;;;;;;;16.30;13.60;;;;;;;14.44;83.68;99933.01;477649;1191;142853;-67
2021/09/26 05:47:16;;;;;;;15.10;13.60;;;;;;;14.96;83.01;99938.48;477016;1190;196245;-67
2021/09/26 05:57:22;;;;;;;15.20;13.60;;;;;;;15.48;81.80;99935.73;476909;1190;194417;-67
2021/09/26 06:07:28;;;;;;;18.50;16.60;;;;;;;16.10;80.93;99943.36;465913;1189;143060;-67
2021/09/26 06:17:34;;;;;;;18.40;16.70;;;;;;;16.79;80.37;99949.21;472288;1190;142539;-68
2021/09/26 06:27:40;;;;;;;23.50;21.20;;;;;;;18.05;79.03;99959.31;476491;1190;142141;-67
2021/09/26 06:37:46;;;;;;;23.50;21.30;;;;;;;18.10;78.08;99968.56;461286;1192;142255;-66
2021/09/26 06:47:52;;;;;;;20.00;18.00;;;;;;;18.01;77.67;99977.89;460638;1191;142244;-67
2021/09/26 06:57:58;;;;;;;20.40;18.50;;;;;;;17.79;77.73;99990.62;461582;1192;141639;-67
2021/09/26 07:08:04;;;;;;;21.50;19.50;;;;;;;17.55;77.92;99997.98;461215;1190;142084;-68
2021/09/26 07:18:10;;;;;;;20.20;18.50;;;;;;;17.37;78.00;100008.52;476451;1190;142494;-70
2021/09/26 07:28:19;;;;;;;19.00;17.00;;;;;;;17.33;78.31;100019.16;467301;1191;141554;-69
2021/09/26 07:38:25;;;;;;;20.90;19.00;;;;;;;17.34;78.32;100020.42;465870;1191;146498;-70
2021/09/26 07:48:31;;;;;;;17.30;15.70;;;;;;;17.37;78.22;100033.52;475103;1190;143852;-68
2021/09/26 07:58:38;;;;;;;18.80;16.90;;;;;;;17.48;78.26;100042.14;475562;1190;142344;-67
2021/09/26 08:08:43;;;;;;;17.80;15.90;;;;;;;17.70;77.97;100051.42;477020;1189;144491;-68
2021/09/26 08:18:50;;;;;;;17.30;15.50;;;;;;;17.96;77.40;100050.92;477896;1190;141919;-68
2021/09/26 08:28:55;;;;;;;16.70;15.00;;;;;;;18.35;77.03;100051.63;477859;1190;141542;-68
2021/09/26 08:39:02;;;;;;;18.40;16.40;;;;;;;18.88;76.11;100051.27;473649;1190;142318;-67
2021/09/26 08:49:08;;;;;;;17.00;15.30;;;;;;;19.41;75.08;100059.58;465950;1190;142577;-68
2021/09/26 08:59:15;;;;;;;13.00;11.80;;;;;;;19.74;73.67;100066.99;461851;1190;141654;-66
2021/09/26 09:09:22;;;;;;;14.80;13.30;;;;;;;19.84;72.88;100058.58;446825;1190;10002536;-65
2021/09/26 09:19:28;;;;;;;12.30;11.20;;;;;;;20.32;71.99;100055.41;467515;1187;141723;-66
2021/09/26 09:29:38;;;;;;;15.20;13.60;;;;;;;20.50;70.64;100061.26;462935;1183;146330;-66
2021/09/26 09:40:09;;;;;;;11.60;10.40;;;;;;;20.48;69.89;100058.33;467736;1190;141791;-66
2021/09/26 09:50:16;;;;;;;9.80;8.80;;;;;;;20.44;69.37;100064.94;472866;1190;141719;-66
2021/09/26 10:00:25;;;;;;;11.60;10.40;;;;;;;20.33;68.82;100070.20;472509;1191;143469;-67
2021/09/26 10:10:35;;;;;;;8.80;8.00;;;;;;;20.44;68.83;100070.30;463436;1190;142020;-69
2021/09/26 10:20:42;;;;;;;9.00;7.70;;;;;;;20.48;67.77;100064.67;465108;1190;141788;-68
2021/09/26 10:30:48;;;;;;;8.70;7.90;;;;;;;20.56;67.51;100065.13;477529;1191;141105;-66
2021/09/26 10:40:53;;;;;;;9.80;8.40;;;;;;;20.67;67.43;100063.95;471475;1191;140971;-67
2021/09/26 10:50:59;;;;;;;11.70;10.00;;;;;;;20.88;67.09;100062.58;475389;1190;141309;-66
2021/09/26 11:01:06;;;;;;;9.60;8.70;;;;;;;21.27;66.28;100060.24;462692;1192;142340;-65
2021/09/26 11:11:33;;;;;;;10.50;9.50;;;;;;;21.66;65.31;100055.42;470876;1191;141004;-64
2021/09/26 11:22:00;;;;;;;8.10;7.30;;;;;;;22.39;64.24;100044.59;472809;1191;141269;-64
2021/09/26 11:32:10;;;;;;;7.40;6.50;;;;;;;22.45;62.76;100048.61;467935;1190;142446;-63
2021/09/26 11:42:30;;;;;;;6.40;5.80;;;;;;;22.38;60.73;100044.09;466452;1191;143161;-66
2021/09/26 11:52:39;;;;;;;6.00;5.20;;;;;;;21.98;60.50;100039.27;475448;1191;141528;-62
2021/09/26 12:02:45;;;;;;;6.30;5.70;;;;;;;21.62;59.83;100039.61;471258;1191;141056;-65
2021/09/26 12:12:51;;;;;;;6.20;5.60;;;;;;;21.22;59.95;100031.04;462300;1192;141034;-64
2021/09/26 12:23:03;;;;;;;7.30;6.60;;;;;;;20.87;60.34;100023.21;461840;1192;140252;-64
2021/09/26 12:33:18;;;;;;;6.00;5.50;;;;;;;20.60;61.19;100020.31;475115;1190;142312;-65
2021/09/26 12:43:25;;;;;;;6.50;5.90;;;;;;;20.37;60.34;100022.05;466292;1190;140735;-63
2021/09/26 12:53:39;;;;;;;5.80;5.30;;;;;;;20.30;60.73;100015.59;460311;1190;142070;-64
2021/09/26 13:03:53;;;;;;;4.60;3.50;;;;;;;20.15;60.60;100019.78;471657;1190;142769;-64
2021/09/26 13:14:08;;;;;;;3.90;3.20;;;;;;;20.14;60.05;100014.46;470690;1191;142484;-66
2021/09/26 13:24:26;;;;;;;4.50;3.40;;;;;;;20.31;59.30;100018.01;466371;1190;140591;-64
2021/09/26 13:34:35;;;;;;;3.40;2.90;;;;;;;20.34;58.23;100006.16;477651;1190;141751;-65
2021/09/26 13:44:41;;;;;;;4.00;2.60;;;;;;;20.35;57.34;100006.85;476854;1190;141225;-65
2021/09/26 13:54:47;;;;;;;3.20;2.70;;;;;;;20.36;56.70;100000.25;476423;1190;140975;-64
2021/09/26 14:04:54;;;;;;;1.80;1.70;;;;;;;20.13;56.14;100000.19;465789;1190;142546;-66
2021/09/26 14:15:00;;;;;;;5.10;2.20;;;;;;;19.79;56.25;99994.60;475952;1191;141357;-63
2021/09/26 14:25:07;;;;;;;3.10;2.60;;;;;;;19.50;56.69;99982.92;466066;1183;140417;-61
2021/09/26 14:35:13;;;;;;;4.30;3.30;;;;;;;19.26;56.90;99980.63;476599;1191;140619;-64
2021/09/26 14:45:22;;;;;;;2.60;2.40;;;;;;;18.98;57.57;99985.16;472378;1191;144013;-66
2021/09/26 14:55:28;;;;;;;3.40;2.10;;;;;;;18.69;57.63;99984.01;477302;1191;141625;-66
2021/09/26 15:05:34;;;;;;;3.40;2.70;;;;;;;18.38;58.27;99979.35;476886;1190;181547;-67
2021/09/26 15:15:41;;;;;;;5.50;2.70;;;;;;;18.14;58.59;99979.01;477764;1188;140859;-66
2021/09/26 15:25:47;;;;;;;3.10;2.80;;;;;;;17.91;59.42;99969.32;477954;1190;140575;-66
2021/09/26 15:35:53;;;;;;;4.10;3.10;;;;;;;17.71;60.03;99966.47;477049;1190;141447;-65
2021/09/26 15:46:01;;;;;;;3.80;3.20;;;;;;;17.52;60.55;99956.13;474097;1190;140339;-66
2021/09/26 15:56:08;;;;;;;6.50;3.40;;;;;;;17.30;61.14;99947.59;468752;1190;142202;-66
2021/09/26 16:06:15;;;;;;;5.30;4.80;;;;;;;16.99;61.92;99941.39;473675;1190;142802;-66
2021/09/26 16:16:21;;;;;;;5.10;4.40;;;;;;;16.64;62.60;99946.06;477859;1190;141761;-66
2021/09/26 16:26:28;;;;;;;6.80;5.10;;;;;;;16.30;63.33;99949.56;476592;1192;142659;-66
2021/09/26 16:36:35;;;;;;;24.50;15.00;;;;;;;15.97;64.19;99955.19;468497;1192;142367;-65
2021/09/26 16:46:41;;;;;;;30.80;21.30;;;;;;;15.65;65.00;99960.89;477900;1190;141607;-66
2021/09/26 16:56:47;;;;;;;17.00;9.40;;;;;;;15.36;65.91;99973.20;477091;1190;141897;-66
2021/09/26 17:06:53;;;;;;;10.90;7.10;;;;;;;15.13;66.87;99980.42;474093;1190;142526;-67
2021/09/26 17:16:58;;;;;;;11.70;7.10;;;;;;;14.85;67.99;99981.30;471706;1190;142531;-66
2021/09/26 17:27:05;;;;;;;14.30;9.40;;;;;;;14.58;69.15;99996.69;472483;1190;142527;-65
2021/09/26 17:37:11;;;;;;;13.80;10.90;;;;;;;14.41;70.59;99994.71;477860;1190;144532;-66
2021/09/26 17:47:17;;;;;;;14.30;11.60;;;;;;;14.31;71.75;99989.30;477038;1190;143560;-67
2021/09/26 17:57:22;;;;;;;17.80;12.40;;;;;;;14.25;73.00;99987.27;462217;1190;145872;-66
2021/09/26 18:07:28;;;;;;;14.70;12.00;;;;;;;14.13;73.86;99989.36;470343;1190;142075;-66
2021/09/26 18:17:34;;;;;;;21.30;15.00;;;;;;;14.07;74.73;99988.37;476770;1190;142172;-66
2021/09/26 18:27:40;;;;;;;14.90;12.20;;;;;;;14.08;75.16;99992.73;455846;1184;10001335;-67
2021/09/26 18:37:46;;;;;;;11.80;9.70;;;;;;;14.07;75.43;99996.33;464794;1191;145772;-65
2021/09/26 18:47:52;;;;;;;11.70;10.50;;;;;;;14.04;75.69;99994.23;476747;1191;141307;-65
2021/09/26 18:57:58;;;;;;;16.90;10.60;;;;;;;13.95;76.11;99992.95;475948;1190;141579;-65
2021/09/26 19:08:05;;;;;;;15.80;12.90;;;;;;;13.83;76.43;99995.89;474403;1190;142117;-66
2021/09/26 19:18:11;;;;;;;18.20;11.00;;;;;;;13.70;76.74;99998.74;477707;1190;142086;-66
2021/09/26 19:28:17;;;;;;;13.50;12.10;;;;;;;13.61;77.15;100006.23;477634;1190;141619;-66
2021/09/26 19:38:23;;;;;;;12.80;11.00;;;;;;;13.54;77.39;100001.23;462959;1190;144356;-65
2021/09/26 19:48:28;;;;;;;14.00;10.80;;;;;;;13.45;77.67;100004.67;476935;1189;143692;-65
2021/09/26 19:58:35;;;;;;;15.60;11.70;;;;;;;13.36;77.80;100008.27;469969;1190;142419;-66
2021/09/26 20:08:41;;;;;;;13.30;11.20;;;;;;;13.24;77.94;100013.27;462073;1190;141967;-65
2021/09/26 20:18:48;;;;;;;15.60;11.90;;;;;;;13.11;78.22;100017.67;464058;1190;141866;-66
2021/09/26 20:28:54;;;;;;;14.70;11.90;;;;;;;13.01;78.56;100015.16;464615;1190;141016;-67
2021/09/26 20:39:00;;;;;;;13.10;10.80;;;;;;;12.95;78.86;100009.10;464026;1190;142082;-66
2021/09/26 20:49:06;;;;;;;15.30;9.80;;;;;;;12.89;78.99;100013.02;461012;1190;143478;-65
2021/09/26 20:59:13;;;;;;;16.80;11.60;;;;;;;12.80;79.21;100023.80;460436;1178;141403;-66
2021/09/26 21:09:19;;;;;;;15.30;11.00;;;;;;;12.71;79.21;100043.35;466230;1190;146226;-65
2021/09/26 21:19:25;;;;;;;13.20;10.20;;;;;;;12.61;79.27;100047.37;463900;1190;142256;-65
2021/09/26 21:29:32;;;;;;;16.50;11.40;;;;;;;12.54;79.52;100050.61;465522;1183;142263;-67
2021/09/26 21:39:39;;;;;;;15.90;10.10;;;;;;;12.48;79.67;100046.95;455560;1190;10001959;-67
2021/09/26 21:49:44;;;;;;;11.50;9.00;;;;;;;12.43;79.74;100040.26;465367;1190;141933;-67
2021/09/26 21:59:50;;;;;;;9.90;7.90;;;;;;;12.42;79.91;100039.11;471201;1190;142671;-68
2021/09/26 22:09:56;;;;;;;8.20;7.20;;;;;;;12.48;79.90;100036.94;462593;1190;141724;-66
2021/09/26 22:20:01;;;;;;;9.50;7.60;;;;;;;12.54;79.59;100020.20;463417;1190;141280;-66
2021/09/26 22:30:12;;;;;;;8.40;7.20;;;;;;;12.57;79.51;100017.02;462804;1190;141135;-68
2021/09/26 22:40:21;;;;;;;10.60;7.60;;;;;;;12.57;79.40;100025.27;462557;1190;142871;-65
2021/09/26 22:50:28;;;;;;;9.80;7.00;;;;;;;12.61;79.45;100022.59;461564;1192;166001;-66
2021/09/26 23:00:39;;;;;;;9.10;6.70;;;;;;;12.72;79.26;100016.04;463632;1191;141845;-66
2021/09/26 23:10:45;;;;;;;10.50;6.50;;;;;;;12.84;79.01;100006.85;462049;1192;193537;-66
2021/09/26 23:20:54;;;;;;;12.00;7.10;;;;;;;12.89;78.71;100006.16;462106;1190;142223;-65
2021/09/26 23:31:00;;;;;;;8.90;6.40;;;;;;;12.89;78.50;100000.52;462098;1191;141782;-66
2021/09/26 23:41:09;;;;;;;8.10;5.50;;;;;;;12.84;78.30;99997.68;461490;1191;142176;-64
2021/09/26 23:51:16;;;;;;;8.20;5.70;;;;;;;12.81;78.08;99999.64;461352;1192;146211;-66
